sensor_id;sensor_type;location;lat;lon;timestamp;pressure;altitude;pressure_sealevel;temperature;humidity
53619;BME280;68717;53.040;18.488;2024-01-25T00:00:02;100239.50;;;7.52;100.00
53619;BME280;68717;53.040;18.488;2024-01-25T00:00:17;100252.00;;;7.52;100.00
53619;BME280;68717;53.040;18.488;2024-01-25T00:00:50;100235.16;;;7.51;100.00
53619;BME280;68717;53.040;18.488;2024-01-25T00:01:23;100236.59;;;7.55;100.00
53619;BME280;68717;53.040;18.488;2024-01-25T00:01:37;100237.56;;;7.54;100.00
53619;BME280;68717;53.040;18.488;2024-01-25T00:01:50;100230.41;;;7.55;100.00
53619;BME280;68717;53.040;18.488;2024-01-25T00:02:04;100237.44;;;7.56;100.00
53619;BME280;68717;53.040;18.488;2024-01-25T00:02:17;100239.97;;;7.57;100.00
53619;BME280;68717;53.040;18.488;2024-01-25T00:02:30;100240.97;;;7.56;100.00
53619;BME280;68717;53.040;18.488;2024-01-25T00:02:43;100245.56;;;7.54;100.00
53619;BME280;68717;53.040;18.488;2024-01-25T00:02:57;100241.94;;;7.55;100.00
53619;BME280;68717;53.040;18.488;2024-01-25T00:03:10;100245.56;;;7.54;100.00
53619;BME280;68717;53.040;18.488;2024-01-25T00:03:24;100247.28;;;7.55;100.00
53619;BME280;68717;53.040;18.488;2024-01-25T00:03:37;100252.63;;;7.55;100.00
53619;BME280;68717;53.040;18.488;2024-01-25T00:03:50;100246.41;;;7.55;100.00
53619;BME280;68717;53.040;18.488;2024-01-25T00:04:03;100242.91;;;7.54;100.00
53619;BME280;68717;53.040;18.488;2024-01-25T00:04:17;100242.91;;;7.54;100.00
53619;BME280;68717;53.040;18.488;2024-01-25T00:04:30;100248.97;;;7.56;100.00
53619;BME280;68717;53.040;18.488;2024-01-25T00:04:43;100245.56;;;7.54;100.00
53619;BME280;68717;53.040;18.488;2024-01-25T00:04:56;100245.56;;;7.54;100.00
53619;BME280;68717;53.040;18.488;2024-01-25T00:05:10;100258.53;;;7.59;100.00
53619;BME280;68717;53.040;18.488;2024-01-25T00:05:24;100251.50;;;7.58;100.00
53619;BME280;68717;53.040;18.488;2024-01-25T00:05:37;100247.47;;;7.64;100.00
53619;BME280;68717;53.040;18.488;2024-01-25T00:05:50;100247.63;;;7.62;100.00
53619;BME280;68717;53.040;18.488;2024-01-25T00:06:04;100249.41;;;7.62;100.00
53619;BME280;68717;53.040;18.488;2024-01-25T00:06:17;100237.06;;;7.61;100.00
53619;BME280;68717;53.040;18.488;2024-01-25T00:06:30;100254.03;;;7.59;100.00
53619;BME280;68717;53.040;18.488;2024-01-25T00:06:43;100254.63;;;7.63;100.00
53619;BME280;68717;53.040;18.488;2024-01-25T00:06:57;100267.25;;;7.61;100.00
53619;BME280;68717;53.040;18.488;2024-01-25T00:07:11;100250.41;;;7.61;100.00
53619;BME280;68717;53.040;18.488;2024-01-25T00:07:24;100250.41;;;7.61;100.00
53619;BME280;68717;53.040;18.488;2024-01-25T00:07:45;100237.06;;;7.61;100.00
53619;BME280;68717;53.040;18.488;2024-01-25T00:07:58;100245.91;;;7.61;100.00
53619;BME280;68717;53.040;18.488;2024-01-25T00:08:11;100245.91;;;7.61;100.00
53619;BME280;68717;53.040;18.488;2024-01-25T00:08:24;100243.25;;;7.61;100.00
53619;BME280;68717;53.040;18.488;2024-01-25T00:08:37;100245.06;;;7.61;100.00
53619;BME280;68717;53.040;18.488;2024-01-25T00:08:50;100249.56;;;7.60;100.00
53619;BME280;68717;53.040;18.488;2024-01-25T00:09:04;100246.03;;;7.59;100.00
53619;BME280;68717;53.040;18.488;2024-01-25T00:09:19;100256.84;;;7.58;100.00
53619;BME280;68717;53.040;18.488;2024-01-25T00:09:32;100257.69;;;7.58;100.00
53619;BME280;68717;53.040;18.488;2024-01-25T00:09:45;100252.34;;;7.58;100.00
53619;BME280;68717;53.040;18.488;2024-01-25T00:09:58;100245.31;;;7.57;100.00
53619;BME280;68717;53.040;18.488;2024-01-25T00:10:12;100254.19;;;7.58;100.00
53619;BME280;68717;53.040;18.488;2024-01-25T00:10:25;100251.50;;;7.58;100.00
53619;BME280;68717;53.040;18.488;2024-01-25T00:10:38;100261.31;;;7.57;100.00
53619;BME280;68717;53.040;18.488;2024-01-25T00:10:51;100264.97;;;7.56;100.00
53619;BME280;68717;53.040;18.488;2024-01-25T00:11:04;100260.22;;;7.60;100.00
53619;BME280;68717;53.040;18.488;2024-01-25T00:11:17;100267.03;;;7.64;100.00
53619;BME280;68717;53.040;18.488;2024-01-25T00:11:31;100256.34;;;7.64;100.00
53619;BME280;68717;53.040;18.488;2024-01-25T00:11:44;100264.47;;;7.63;100.00
53619;BME280;68717;53.040;18.488;2024-01-25T00:11:57;100259.72;;;7.66;100.00
53619;BME280;68717;53.040;18.488;2024-01-25T00:12:10;100252.44;;;7.68;100.00
53619;BME280;68717;53.040;18.488;2024-01-25T00:12:23;100248.09;;;7.67;100.00
53619;BME280;68717;53.040;18.488;2024-01-25T00:12:36;100252.69;;;7.65;100.00
53619;BME280;68717;53.040;18.488;2024-01-25T00:12:49;100264.19;;;7.66;100.00
53619;BME280;68717;53.040;18.488;2024-01-25T00:13:03;100267.84;;;7.65;100.00
53619;BME280;68717;53.040;18.488;2024-01-25T00:13:16;100267.84;;;7.65;100.00
53619;BME280;68717;53.040;18.488;2024-01-25T00:13:29;100265.31;;;7.63;100.00
53619;BME280;68717;53.040;18.488;2024-01-25T00:13:43;100261.81;;;7.63;100.00
53619;BME280;68717;53.040;18.488;2024-01-25T00:13:56;100257.41;;;7.62;100.00
53619;BME280;68717;53.040;18.488;2024-01-25T00:14:08;100257.56;;;7.60;100.00
53619;BME280;68717;53.040;18.488;2024-01-25T00:14:21;100259.38;;;7.59;100.00
53619;BME280;68717;53.040;18.488;2024-01-25T00:14:34;100262.91;;;7.60;100.00
53619;BME280;68717;53.040;18.488;2024-01-25T00:14:47;100260.22;;;7.60;100.00
53619;BME280;68717;53.040;18.488;2024-01-25T00:15:00;100263.84;;;7.59;100.00
53619;BME280;68717;53.040;18.488;2024-01-25T00:15:13;100262.03;;;7.59;100.00
53619;BME280;68717;53.040;18.488;2024-01-25T00:15:26;100270.03;;;7.59;100.00
53619;BME280;68717;53.040;18.488;2024-01-25T00:15:41;100260.34;;;7.58;100.00
53619;BME280;68717;53.040;18.488;2024-01-25T00:15:54;100247.00;;;7.58;100.00
53619;BME280;68717;53.040;18.488;2024-01-25T00:16:07;100268.34;;;7.58;100.00
53619;BME280;68717;53.040;18.488;2024-01-25T00:16:21;100257.69;;;7.58;100.00
53619;BME280;68717;53.040;18.488;2024-01-25T00:16:34;100264.84;;;7.58;100.00
53619;BME280;68717;53.040;18.488;2024-01-25T00:16:47;100264.69;;;7.59;100.00
53619;BME280;68717;53.040;18.488;2024-01-25T00:17:00;100269.19;;;7.59;100.00
53619;BME280;68717;53.040;18.488;2024-01-25T00:17:14;100262.03;;;7.59;100.00
53619;BME280;68717;53.040;18.488;2024-01-25T00:17:27;100266.63;;;7.57;100.00
53619;BME280;68717;53.040;18.488;2024-01-25T00:17:41;100259.50;;;7.58;100.00
53619;BME280;68717;53.040;18.488;2024-01-25T00:17:56;100259.50;;;7.58;100.00
53619;BME280;68717;53.040;18.488;2024-01-25T00:18:09;100268.34;;;7.58;100.00
53619;BME280;68717;53.040;18.488;2024-01-25T00:18:22;100255.75;;;7.61;100.00
53619;BME280;68717;53.040;18.488;2024-01-25T00:18:35;100260.22;;;7.60;100.00
53619;BME280;68717;53.040;18.488;2024-01-25T00:18:48;100266.41;;;7.61;100.00
53619;BME280;68717;53.040;18.488;2024-01-25T00:19:02;100255.75;;;7.61;100.00
53619;BME280;68717;53.040;18.488;2024-01-25T00:19:15;100262.03;;;7.59;100.00
53619;BME280;68717;53.040;18.488;2024-01-25T00:19:28;100254.03;;;7.59;100.00
53619;BME280;68717;53.040;18.488;2024-01-25T00:19:43;100265.69;;;7.58;100.00
53619;BME280;68717;53.040;18.488;2024-01-25T00:19:56;100273.69;;;7.58;100.00
53619;BME280;68717;53.040;18.488;2024-01-25T00:20:10;100261.31;;;7.57;100.00
53619;BME280;68717;53.040;18.488;2024-01-25T00:20:23;100263.84;;;7.59;100.00
53619;BME280;68717;53.040;18.488;2024-01-25T00:20:36;100262.19;;;7.58;100.00
53619;BME280;68717;53.040;18.488;2024-01-25T00:20:49;100258.28;;;7.62;100.00
53619;BME280;68717;53.040;18.488;2024-01-25T00:21:03;100260.09;;;7.62;100.00
53619;BME280;68717;53.040;18.488;2024-01-25T00:21:16;100266.41;;;7.61;100.00
53619;BME280;68717;53.040;18.488;2024-01-25T00:21:28;100266.41;;;7.61;100.00
53619;BME280;68717;53.040;18.488;2024-01-25T00:21:43;100274.41;;;7.61;100.00
53619;BME280;68717;53.040;18.488;2024-01-25T00:21:56;100266.53;;;7.59;100.00
53619;BME280;68717;53.040;18.488;2024-01-25T00:22:10;100266.63;;;7.57;100.00
53619;BME280;68717;53.040;18.488;2024-01-25T00:22:23;100262.28;;;7.56;100.00
53619;BME280;68717;53.040;18.488;2024-01-25T00:22:36;100279.13;;;7.57;100.00
53619;BME280;68717;53.040;18.488;2024-01-25T00:22:49;100271.97;;;7.57;100.00
53619;BME280;68717;53.040;18.488;2024-01-25T00:23:03;100267.63;;;7.56;100.00
53619;BME280;68717;53.040;18.488;2024-01-25T00:23:16;100263.03;;;7.58;100.00
53619;BME280;68717;53.040;18.488;2024-01-25T00:23:29;100262.28;;;7.56;100.00
53619;BME280;68717;53.040;18.488;2024-01-25T00:23:42;100262.28;;;7.56;100.00
53619;BME280;68717;53.040;18.488;2024-01-25T00:23:56;100277.47;;;7.56;100.00
53619;BME280;68717;53.040;18.488;2024-01-25T00:24:12;100263.28;;;7.55;100.00
53619;BME280;68717;53.040;18.488;2024-01-25T00:24:26;100277.31;;;7.57;100.00
53619;BME280;68717;53.040;18.488;2024-01-25T00:24:39;100269.31;;;7.57;100.00
53619;BME280;68717;53.040;18.488;2024-01-25T00:24:52;100271.97;;;7.57;100.00
53619;BME280;68717;53.040;18.488;2024-01-25T00:25:05;100263.03;;;7.58;100.00
53619;BME280;68717;53.040;18.488;2024-01-25T00:25:19;100273.69;;;7.58;100.00
53619;BME280;68717;53.040;18.488;2024-01-25T00:25:32;100271.97;;;7.57;100.00
53619;BME280;68717;53.040;18.488;2024-01-25T00:25:45;100276.47;;;7.57;100.00
53619;BME280;68717;53.040;18.488;2024-01-25T00:25:59;100274.66;;;7.57;100.00
53619;BME280;68717;53.040;18.488;2024-01-25T00:26:13;100266.63;;;7.57;100.00
53619;BME280;68717;53.040;18.488;2024-01-25T00:26:25;100278.31;;;7.56;100.00
53619;BME280;68717;53.040;18.488;2024-01-25T00:26:39;100268.63;;;7.55;100.00
53619;BME280;68717;53.040;18.488;2024-01-25T00:26:52;100264.97;;;7.56;100.00
53619;BME280;68717;53.040;18.488;2024-01-25T00:27:05;100279.97;;;7.57;100.00
53619;BME280;68717;53.040;18.488;2024-01-25T00:27:18;100274.66;;;7.57;100.00
53619;BME280;68717;53.040;18.488;2024-01-25T00:27:31;100270.28;;;7.56;100.00
53619;BME280;68717;53.040;18.488;2024-01-25T00:27:45;100275.63;;;7.56;100.00
53619;BME280;68717;53.040;18.488;2024-01-25T00:27:58;100278.31;;;7.56;100.00
53619;BME280;68717;53.040;18.488;2024-01-25T00:28:11;100273.09;;;7.55;100.00
53619;BME280;68717;53.040;18.488;2024-01-25T00:28:25;100273.97;;;7.55;100.00
53619;BME280;68717;53.040;18.488;2024-01-25T00:28:39;100272.25;;;7.54;100.00
53619;BME280;68717;53.040;18.488;2024-01-25T00:28:52;100277.56;;;7.54;100.00
53619;BME280;68717;53.040;18.488;2024-01-25T00:29:05;100273.09;;;7.55;100.00
53619;BME280;68717;53.040;18.488;2024-01-25T00:29:18;100267.75;;;7.55;100.00
53619;BME280;68717;53.040;18.488;2024-01-25T00:29:31;100281.09;;;7.55;100.00
53619;BME280;68717;53.040;18.488;2024-01-25T00:29:45;100267.91;;;7.53;100.00
53619;BME280;68717;53.040;18.488;2024-01-25T00:29:58;100272.25;;;7.54;100.00
53619;BME280;68717;53.040;18.488;2024-01-25T00:30:11;100274.06;;;7.54;100.00
53619;BME280;68717;53.040;18.488;2024-01-25T00:30:24;100263.50;;;7.52;100.00
53619;BME280;68717;53.040;18.488;2024-01-25T00:30:38;100269.69;;;7.53;100.00
53619;BME280;68717;53.040;18.488;2024-01-25T00:30:51;100268.00;;;7.52;100.00
53619;BME280;68717;53.040;18.488;2024-01-25T00:31:04;100272.50;;;7.51;100.00
53619;BME280;68717;53.040;18.488;2024-01-25T00:31:18;100271.50;;;7.52;100.00
53619;BME280;68717;53.040;18.488;2024-01-25T00:31:31;100270.56;;;7.53;100.00
53619;BME280;68717;53.040;18.488;2024-01-25T00:31:44;100270.56;;;7.53;100.00
53619;BME280;68717;53.040;18.488;2024-01-25T00:31:58;100280.34;;;7.53;100.00
53619;BME280;68717;53.040;18.488;2024-01-25T00:32:11;100270.69;;;7.52;100.00
53619;BME280;68717;53.040;18.488;2024-01-25T00:32:24;100267.91;;;7.53;100.00
53619;BME280;68717;53.040;18.488;2024-01-25T00:32:36;100273.22;;;7.53;100.00
53619;BME280;68717;53.040;18.488;2024-01-25T00:32:49;100272.50;;;7.51;100.00
53619;BME280;68717;53.040;18.488;2024-01-25T00:33:04;100279.53;;;7.52;100.00
53619;BME280;68717;53.040;18.488;2024-01-25T00:33:18;100275.16;;;7.51;100.00
53619;BME280;68717;53.040;18.488;2024-01-25T00:33:31;100280.50;;;7.51;100.00
53619;BME280;68717;53.040;18.488;2024-01-25T00:33:44;100280.50;;;7.51;100.00
53619;BME280;68717;53.040;18.488;2024-01-25T00:33:59;100282.31;;;7.51;100.00
53619;BME280;68717;53.040;18.488;2024-01-25T00:34:13;100294.69;;;7.52;100.00
53619;BME280;68717;53.040;18.488;2024-01-25T00:34:27;100274.19;;;7.52;100.00
53619;BME280;68717;53.040;18.488;2024-01-25T00:34:41;100276.00;;;7.52;100.00
53619;BME280;68717;53.040;18.488;2024-01-25T00:34:54;100276.13;;;7.50;100.00
53619;BME280;68717;53.040;18.488;2024-01-25T00:35:09;100278.78;;;7.50;100.00
53619;BME280;68717;53.040;18.488;2024-01-25T00:35:24;100287.63;;;7.51;100.00
53619;BME280;68717;53.040;18.488;2024-01-25T00:35:38;100274.44;;;7.49;100.00
53619;BME280;68717;53.040;18.488;2024-01-25T00:35:53;100280.63;;;7.50;100.00
53619;BME280;68717;53.040;18.488;2024-01-25T00:36:07;100290.44;;;7.49;100.00
53619;BME280;68717;53.040;18.488;2024-01-25T00:36:20;100289.56;;;7.49;100.00
53619;BME280;68717;53.040;18.488;2024-01-25T00:36:33;100279.78;;;7.49;100.00
53619;BME280;68717;53.040;18.488;2024-01-25T00:36:47;100277.13;;;7.49;100.00
53619;BME280;68717;53.040;18.488;2024-01-25T00:37:01;100277.13;;;7.49;100.00
53619;BME280;68717;53.040;18.488;2024-01-25T00:37:14;100290.44;;;7.49;100.00
53619;BME280;68717;53.040;18.488;2024-01-25T00:37:28;100280.75;;;7.48;100.00
53619;BME280;68717;53.040;18.488;2024-01-25T00:37:43;100287.91;;;7.48;100.00
53619;BME280;68717;53.040;18.488;2024-01-25T00:37:56;100281.72;;;7.47;100.00
53619;BME280;68717;53.040;18.488;2024-01-25T00:38:10;100281.72;;;7.47;100.00
53619;BME280;68717;53.040;18.488;2024-01-25T00:38:23;100287.91;;;7.48;100.00
53619;BME280;68717;53.040;18.488;2024-01-25T00:38:37;100272.00;;;7.46;100.00
53619;BME280;68717;53.040;18.488;2024-01-25T00:38:50;100278.91;;;7.49;100.00
53619;BME280;68717;53.040;18.488;2024-01-25T00:39:04;100290.69;;;7.46;100.00
53619;BME280;68717;53.040;18.488;2024-01-25T00:39:18;100288.75;;;7.48;100.00
53619;BME280;68717;53.040;18.488;2024-01-25T00:39:32;100286.22;;;7.47;100.00
53619;BME280;68717;53.040;18.488;2024-01-25T00:39:46;100274.69;;;7.46;100.00
53619;BME280;68717;53.040;18.488;2024-01-25T00:39:59;100285.34;;;7.46;100.00
53619;BME280;68717;53.040;18.488;2024-01-25T00:40:13;100280.00;;;7.46;100.00
53619;BME280;68717;53.040;18.488;2024-01-25T00:40:27;100280.00;;;7.46;100.00
53619;BME280;68717;53.040;18.488;2024-01-25T00:40:40;100281.72;;;7.47;100.00
53619;BME280;68717;53.040;18.488;2024-01-25T00:40:54;100288.88;;;7.47;100.00
53619;BME280;68717;53.040;18.488;2024-01-25T00:41:09;100271.78;;;7.49;100.00
53619;BME280;68717;53.040;18.488;2024-01-25T00:41:23;100273.72;;;7.47;100.00
53619;BME280;68717;53.040;18.488;2024-01-25T00:41:36;100292.84;;;7.52;100.00
53619;BME280;68717;53.040;18.488;2024-01-25T00:41:51;100288.34;;;7.53;100.00
53619;BME280;68717;53.040;18.488;2024-01-25T00:42:06;100280.50;;;7.51;100.00
53619;BME280;68717;53.040;18.488;2024-01-25T00:42:21;100274.44;;;7.49;100.00
53619;BME280;68717;53.040;18.488;2024-01-25T00:42:39;100274.56;;;7.48;100.00
53619;BME280;68717;53.040;18.488;2024-01-25T00:42:54;100273.72;;;7.47;100.00
53619;BME280;68717;53.040;18.488;2024-01-25T00:43:09;100280.88;;;7.47;100.00
53619;BME280;68717;53.040;18.488;2024-01-25T00:43:23;100265.00;;;7.45;100.00
53619;BME280;68717;53.040;18.488;2024-01-25T00:43:36;100273.00;;;7.45;100.00
53619;BME280;68717;53.040;18.488;2024-01-25T00:43:50;100278.31;;;7.45;100.00
53619;BME280;68717;53.040;18.488;2024-01-25T00:44:04;100289.00;;;7.45;100.00
53619;BME280;68717;53.040;18.488;2024-01-25T00:44:17;100280.28;;;7.43;100.00
53619;BME280;68717;53.040;18.488;2024-01-25T00:44:31;100277.59;;;7.43;100.00
53619;BME280;68717;53.040;18.488;2024-01-25T00:44:44;100272.28;;;7.43;100.00
53619;BME280;68717;53.040;18.488;2024-01-25T00:44:58;100264.28;;;7.43;100.00
53619;BME280;68717;53.040;18.488;2024-01-25T00:45:13;100270.56;;;7.42;100.00
53619;BME280;68717;53.040;18.488;2024-01-25T00:45:26;100278.56;;;7.42;100.00
53619;BME280;68717;53.040;18.488;2024-01-25T00:45:40;100289.22;;;7.42;100.00
53619;BME280;68717;53.040;18.488;2024-01-25T00:45:54;100263.44;;;7.43;100.00
53619;BME280;68717;53.040;18.488;2024-01-25T00:46:09;100278.56;;;7.42;100.00
53619;BME280;68717;53.040;18.488;2024-01-25T00:46:23;100278.56;;;7.42;100.00
53619;BME280;68717;53.040;18.488;2024-01-25T00:46:37;100278.56;;;7.42;100.00
53619;BME280;68717;53.040;18.488;2024-01-25T00:46:50;100283.06;;;7.42;100.00
53619;BME280;68717;53.040;18.488;2024-01-25T00:47:06;100269.84;;;7.40;100.00
53619;BME280;68717;53.040;18.488;2024-01-25T00:47:20;100280.50;;;7.40;100.00
53619;BME280;68717;53.040;18.488;2024-01-25T00:47:34;100280.50;;;7.40;100.00
53619;BME280;68717;53.040;18.488;2024-01-25T00:47:48;100275.16;;;7.40;100.00
53619;BME280;68717;53.040;18.488;2024-01-25T00:48:04;100279.66;;;7.39;100.00
53619;BME280;68717;53.040;18.488;2024-01-25T00:48:18;100275.16;;;7.40;100.00
53619;BME280;68717;53.040;18.488;2024-01-25T00:48:31;100272.66;;;7.38;100.00
53619;BME280;68717;53.040;18.488;2024-01-25T00:48:45;100266.31;;;7.39;100.00
53619;BME280;68717;53.040;18.488;2024-01-25T00:48:59;100269.84;;;7.40;100.00
53619;BME280;68717;53.040;18.488;2024-01-25T00:49:13;100262.81;;;7.39;100.00
53619;BME280;68717;53.040;18.488;2024-01-25T00:49:27;100273.47;;;7.39;100.00
53619;BME280;68717;53.040;18.488;2024-01-25T00:49:41;100275.31;;;7.38;100.00
53619;BME280;68717;53.040;18.488;2024-01-25T00:49:54;100273.47;;;7.39;100.00
53619;BME280;68717;53.040;18.488;2024-01-25T00:50:08;100272.66;;;7.38;100.00
53619;BME280;68717;53.040;18.488;2024-01-25T00:50:22;100282.31;;;7.39;100.00
53619;BME280;68717;53.040;18.488;2024-01-25T00:50:37;100280.50;;;7.40;100.00
53619;BME280;68717;53.040;18.488;2024-01-25T00:50:51;100275.31;;;7.38;100.00
53619;BME280;68717;53.040;18.488;2024-01-25T00:51:07;100268.16;;;7.39;100.00
53619;BME280;68717;53.040;18.488;2024-01-25T00:51:21;100262.81;;;7.39;100.00
53619;BME280;68717;53.040;18.488;2024-01-25T00:51:36;100277.13;;;7.38;100.00
53619;BME280;68717;53.040;18.488;2024-01-25T00:51:50;100277.13;;;7.38;100.00
53619;BME280;68717;53.040;18.488;2024-01-25T00:52:04;100266.47;;;7.38;100.00
53619;BME280;68717;53.040;18.488;2024-01-25T00:52:18;100259.44;;;7.37;100.00
53619;BME280;68717;53.040;18.488;2024-01-25T00:52:32;100253.13;;;7.38;100.00
53619;BME280;68717;53.040;18.488;2024-01-25T00:52:45;100269.00;;;7.39;100.00
53619;BME280;68717;53.040;18.488;2024-01-25T00:53:00;100269.00;;;7.39;100.00
53619;BME280;68717;53.040;18.488;2024-01-25T00:53:13;100267.31;;;7.38;100.00
53619;BME280;68717;53.040;18.488;2024-01-25T00:53:26;100269.84;;;7.40;100.00
53619;BME280;68717;53.040;18.488;2024-01-25T00:53:40;100276.88;;;7.41;100.00
53619;BME280;68717;53.040;18.488;2024-01-25T00:53:54;100285.84;;;7.40;100.00
53619;BME280;68717;53.040;18.488;2024-01-25T00:54:07;100272.50;;;7.40;100.00
53619;BME280;68717;53.040;18.488;2024-01-25T00:54:21;100276.03;;;7.41;100.00
53619;BME280;68717;53.040;18.488;2024-01-25T00:54:34;100284.88;;;7.41;100.00
53619;BME280;68717;53.040;18.488;2024-01-25T00:54:49;100262.69;;;7.41;100.00
53619;BME280;68717;53.040;18.488;2024-01-25T00:55:04;100271.66;;;7.39;100.00
53619;BME280;68717;53.040;18.488;2024-01-25T00:55:17;100274.31;;;7.39;100.00
53619;BME280;68717;53.040;18.488;2024-01-25T00:55:31;100263.66;;;7.39;100.00
53619;BME280;68717;53.040;18.488;2024-01-25T00:55:45;100277.84;;;7.40;100.00
53619;BME280;68717;53.040;18.488;2024-01-25T00:55:58;100274.31;;;7.39;100.00
53619;BME280;68717;53.040;18.488;2024-01-25T00:56:12;100274.09;;;7.43;100.00
53619;BME280;68717;53.040;18.488;2024-01-25T00:56:26;100270.56;;;7.42;100.00
53619;BME280;68717;53.040;18.488;2024-01-25T00:56:40;100271.53;;;7.41;100.00
53619;BME280;68717;53.040;18.488;2024-01-25T00:56:53;100278.56;;;7.42;100.00
53619;BME280;68717;53.040;18.488;2024-01-25T00:57:07;100272.38;;;7.42;100.00
53619;BME280;68717;53.040;18.488;2024-01-25T00:57:21;100275.88;;;7.42;100.00
53619;BME280;68717;53.040;18.488;2024-01-25T00:57:34;100267.88;;;7.42;100.00
53619;BME280;68717;53.040;18.488;2024-01-25T00:57:48;100278.56;;;7.42;100.00
53619;BME280;68717;53.040;18.488;2024-01-25T00:58:02;100279.53;;;7.41;100.00
53619;BME280;68717;53.040;18.488;2024-01-25T00:58:16;100268.03;;;7.41;100.00
53619;BME280;68717;53.040;18.488;2024-01-25T00:58:29;100272.38;;;7.42;100.00
53619;BME280;68717;53.040;18.488;2024-01-25T00:58:44;100268.88;;;7.41;100.00
53619;BME280;68717;53.040;18.488;2024-01-25T00:58:58;100268.88;;;7.41;100.00
53619;BME280;68717;53.040;18.488;2024-01-25T00:59:11;100270.72;;;7.41;100.00
53619;BME280;68717;53.040;18.488;2024-01-25T00:59:25;100283.91;;;7.42;100.00
53619;BME280;68717;53.040;18.488;2024-01-25T00:59:38;100275.88;;;7.42;100.00
53619;BME280;68717;53.040;18.488;2024-01-25T00:59:52;100286.56;;;7.42;100.00
53619;BME280;68717;53.040;18.488;2024-01-25T01:00:06;100276.88;;;7.41;100.00
53619;BME280;68717;53.040;18.488;2024-01-25T01:00:21;100281.38;;;7.41;100.00
53619;BME280;68717;53.040;18.488;2024-01-25T01:00:36;100269.00;;;7.39;100.00
53619;BME280;68717;53.040;18.488;2024-01-25T01:00:49;100276.16;;;7.39;100.00
53619;BME280;68717;53.040;18.488;2024-01-25T01:01:03;100283.16;;;7.40;100.00
53619;BME280;68717;53.040;18.488;2024-01-25T01:01:18;100272.50;;;7.40;100.00
53619;BME280;68717;53.040;18.488;2024-01-25T01:01:34;100275.16;;;7.40;100.00
53619;BME280;68717;53.040;18.488;2024-01-25T01:01:48;100272.50;;;7.40;100.00
53619;BME280;68717;53.040;18.488;2024-01-25T01:02:03;100279.66;;;7.39;100.00
53619;BME280;68717;53.040;18.488;2024-01-25T01:02:21;100296.50;;;7.40;100.00
53619;BME280;68717;53.040;18.488;2024-01-25T01:02:38;100273.47;;;7.39;100.00
53619;BME280;68717;53.040;18.488;2024-01-25T01:02:53;100269.84;;;7.40;100.00
53619;BME280;68717;53.040;18.488;2024-01-25T01:03:09;100278.81;;;7.39;100.00
53619;BME280;68717;53.040;18.488;2024-01-25T01:03:24;100280.66;;;7.38;100.00
53619;BME280;68717;53.040;18.488;2024-01-25T01:03:37;100276.25;;;7.37;100.00
53619;BME280;68717;53.040;18.488;2024-01-25T01:03:51;100283.31;;;7.38;100.00
53619;BME280;68717;53.040;18.488;2024-01-25T01:04:06;100283.31;;;7.38;100.00
53619;BME280;68717;53.040;18.488;2024-01-25T01:04:20;100285.00;;;7.39;100.00
53619;BME280;68717;53.040;18.488;2024-01-25T01:04:34;100269.84;;;7.40;100.00
53619;BME280;68717;53.040;18.488;2024-01-25T01:05:00;100277.59;;;7.43;100.00
53619;BME280;68717;53.040;18.488;2024-01-25T01:05:15;100282.09;;;7.43;100.00
53619;BME280;68717;53.040;18.488;2024-01-25T01:05:30;100280.28;;;7.43;100.00
53619;BME280;68717;53.040;18.488;2024-01-25T01:05:44;100272.28;;;7.43;100.00
53619;BME280;68717;53.040;18.488;2024-01-25T01:05:58;100271.44;;;7.43;100.00
53619;BME280;68717;53.040;18.488;2024-01-25T01:06:12;100266.22;;;7.41;100.00
53619;BME280;68717;53.040;18.488;2024-01-25T01:06:27;100276.88;;;7.41;100.00
53619;BME280;68717;53.040;18.488;2024-01-25T01:06:40;100266.22;;;7.41;100.00
53619;BME280;68717;53.040;18.488;2024-01-25T01:06:54;100276.03;;;7.41;100.00
53619;BME280;68717;53.040;18.488;2024-01-25T01:07:09;100276.03;;;7.41;100.00
53619;BME280;68717;53.040;18.488;2024-01-25T01:07:23;100277.84;;;7.40;100.00
53619;BME280;68717;53.040;18.488;2024-01-25T01:07:37;100281.47;;;7.39;100.00
53619;BME280;68717;53.040;18.488;2024-01-25T01:07:53;100269.00;;;7.39;100.00
53619;BME280;68717;53.040;18.488;2024-01-25T01:08:07;100271.81;;;7.38;100.00
53619;BME280;68717;53.040;18.488;2024-01-25T01:08:21;100271.81;;;7.38;100.00
53619;BME280;68717;53.040;18.488;2024-01-25T01:08:34;100269.13;;;7.38;100.00
53619;BME280;68717;53.040;18.488;2024-01-25T01:08:48;100270.09;;;7.37;100.00
53619;BME280;68717;53.040;18.488;2024-01-25T01:09:01;100277.97;;;7.38;100.00
53619;BME280;68717;53.040;18.488;2024-01-25T01:09:14;100271.66;;;7.39;100.00
53619;BME280;68717;53.040;18.488;2024-01-25T01:09:27;100271.53;;;7.41;100.00
53619;BME280;68717;53.040;18.488;2024-01-25T01:09:42;100266.22;;;7.41;100.00
53619;BME280;68717;53.040;18.488;2024-01-25T01:09:55;100266.22;;;7.41;100.00
53619;BME280;68717;53.040;18.488;2024-01-25T01:10:08;100269.84;;;7.40;100.00
53619;BME280;68717;53.040;18.488;2024-01-25T01:10:22;100262.81;;;7.39;100.00
53619;BME280;68717;53.040;18.488;2024-01-25T01:10:35;100270.81;;;7.39;100.00
53619;BME280;68717;53.040;18.488;2024-01-25T01:10:48;100270.81;;;7.39;100.00
53619;BME280;68717;53.040;18.488;2024-01-25T01:11:00;100272.66;;;7.38;100.00
53619;BME280;68717;53.040;18.488;2024-01-25T01:11:14;100277.13;;;7.38;100.00
53619;BME280;68717;53.040;18.488;2024-01-25T01:11:27;100277.13;;;7.38;100.00
53619;BME280;68717;53.040;18.488;2024-01-25T01:11:41;100282.47;;;7.38;100.00